sensor_id;sensor_type;location;lat;lon;timestamp;P1;durP1;ratioP1;P2;durP2;ratioP2
51612;SDS011;37694;51.748;14.326;2023-02-03T00:01:20;8.00;;;5.82;;
51612;SDS011;37694;51.748;14.326;2023-02-03T00:03:47;6.40;;;5.72;;
51612;SDS011;37694;51.748;14.326;2023-02-03T00:06:12;6.50;;;5.40;;
51612;SDS011;37694;51.748;14.326;2023-02-03T00:08:38;9.38;;;5.60;;
51612;SDS011;37694;51.748;14.326;2023-02-03T00:11:04;11.63;;;6.35;;
51612;SDS011;37694;51.748;14.326;2023-02-03T00:13:31;7.60;;;5.60;;
51612;SDS011;37694;51.748;14.326;2023-02-03T00:15:57;8.35;;;6.10;;
51612;SDS011;37694;51.748;14.326;2023-02-03T00:18:25;9.18;;;6.30;;
51612;SDS011;37694;51.748;14.326;2023-02-03T00:20:51;7.95;;;6.28;;
51612;SDS011;37694;51.748;14.326;2023-02-03T00:23:17;6.88;;;5.47;;
51612;SDS011;37694;51.748;14.326;2023-02-03T00:25:43;7.60;;;5.85;;
51612;SDS011;37694;51.748;14.326;2023-02-03T00:28:09;6.65;;;5.75;;
51612;SDS011;37694;51.748;14.326;2023-02-03T00:30:34;8.10;;;6.03;;
51612;SDS011;37694;51.748;14.326;2023-02-03T00:33:01;8.45;;;6.10;;
51612;SDS011;37694;51.748;14.326;2023-02-03T00:35:27;7.95;;;6.20;;
51612;SDS011;37694;51.748;14.326;2023-02-03T00:37:54;7.05;;;6.20;;
51612;SDS011;37694;51.748;14.326;2023-02-03T00:40:20;10.07;;;6.28;;
51612;SDS011;37694;51.748;14.326;2023-02-03T00:42:47;7.43;;;6.38;;
51612;SDS011;37694;51.748;14.326;2023-02-03T00:45:13;7.03;;;5.32;;
51612;SDS011;37694;51.748;14.326;2023-02-03T00:47:38;8.07;;;5.95;;
51612;SDS011;37694;51.748;14.326;2023-02-03T00:50:05;6.45;;;5.82;;
51612;SDS011;37694;51.748;14.326;2023-02-03T00:52:31;7.75;;;6.22;;
51612;SDS011;37694;51.748;14.326;2023-02-03T00:54:57;7.15;;;5.78;;
51612;SDS011;37694;51.748;14.326;2023-02-03T00:57:22;8.20;;;5.78;;
51612;SDS011;37694;51.748;14.326;2023-02-03T00:59:48;6.20;;;5.13;;
51612;SDS011;37694;51.748;14.326;2023-02-03T01:02:14;6.72;;;5.88;;
51612;SDS011;37694;51.748;14.326;2023-02-03T01:04:41;9.48;;;5.82;;
51612;SDS011;37694;51.748;14.326;2023-02-03T01:07:07;6.93;;;6.15;;
51612;SDS011;37694;51.748;14.326;2023-02-03T01:09:33;8.55;;;6.13;;
51612;SDS011;37694;51.748;14.326;2023-02-03T01:12:00;9.60;;;5.80;;
51612;SDS011;37694;51.748;14.326;2023-02-03T01:14:26;6.68;;;5.47;;
51612;SDS011;37694;51.748;14.326;2023-02-03T01:16:52;11.40;;;6.18;;
51612;SDS011;37694;51.748;14.326;2023-02-03T01:19:18;8.18;;;5.90;;
51612;SDS011;37694;51.748;14.326;2023-02-03T01:21:43;6.88;;;5.97;;
51612;SDS011;37694;51.748;14.326;2023-02-03T01:24:09;9.52;;;5.40;;
51612;SDS011;37694;51.748;14.326;2023-02-03T01:26:35;7.75;;;5.85;;
51612;SDS011;37694;51.748;14.326;2023-02-03T01:29:01;5.97;;;4.70;;
51612;SDS011;37694;51.748;14.326;2023-02-03T01:31:29;8.30;;;6.00;;
51612;SDS011;37694;51.748;14.326;2023-02-03T01:33:59;6.32;;;5.68;;
51612;SDS011;37694;51.748;14.326;2023-02-03T01:36:26;9.30;;;6.10;;
51612;SDS011;37694;51.748;14.326;2023-02-03T01:38:53;7.30;;;5.93;;
51612;SDS011;37694;51.748;14.326;2023-02-03T01:41:20;6.07;;;5.47;;
51612;SDS011;37694;51.748;14.326;2023-02-03T01:43:52;8.70;;;6.28;;
51612;SDS011;37694;51.748;14.326;2023-02-03T01:48:55;9.32;;;6.43;;
51612;SDS011;37694;51.748;14.326;2023-02-03T01:51:29;8.63;;;6.10;;
51612;SDS011;37694;51.748;14.326;2023-02-03T01:53:55;7.40;;;5.97;;
51612;SDS011;37694;51.748;14.326;2023-02-03T01:56:21;6.10;;;5.38;;
51612;SDS011;37694;51.748;14.326;2023-02-03T01:58:51;6.90;;;5.80;;
51612;SDS011;37694;51.748;14.326;2023-02-03T02:01:16;8.02;;;6.13;;
51612;SDS011;37694;51.748;14.326;2023-02-03T02:03:47;9.65;;;5.88;;
51612;SDS011;37694;51.748;14.326;2023-02-03T02:06:17;7.93;;;5.90;;
51612;SDS011;37694;51.748;14.326;2023-02-03T02:08:45;6.15;;;5.32;;
51612;SDS011;37694;51.748;14.326;2023-02-03T02:11:13;8.93;;;5.68;;
51612;SDS011;37694;51.748;14.326;2023-02-03T02:13:39;5.85;;;5.25;;
51612;SDS011;37694;51.748;14.326;2023-02-03T02:40:22;6.55;;;5.47;;
51612;SDS011;37694;51.748;14.326;2023-02-03T02:43:09;6.63;;;5.50;;
51612;SDS011;37694;51.748;14.326;2023-02-03T02:45:50;5.78;;;5.22;;
51612;SDS011;37694;51.748;14.326;2023-02-03T02:50:55;6.38;;;5.55;;
51612;SDS011;37694;51.748;14.326;2023-02-03T02:53:24;7.35;;;5.82;;
51612;SDS011;37694;51.748;14.326;2023-02-03T02:55:52;6.43;;;5.22;;
51612;SDS011;37694;51.748;14.326;2023-02-03T02:58:21;7.30;;;5.47;;
51612;SDS011;37694;51.748;14.326;2023-02-03T03:00:48;7.15;;;5.43;;
51612;SDS011;37694;51.748;14.326;2023-02-03T03:05:42;6.38;;;5.45;;
51612;SDS011;37694;51.748;14.326;2023-02-03T03:08:12;7.93;;;5.40;;
51612;SDS011;37694;51.748;14.326;2023-02-03T03:10:40;7.70;;;5.18;;
51612;SDS011;37694;51.748;14.326;2023-02-03T03:13:08;6.20;;;5.25;;
51612;SDS011;37694;51.748;14.326;2023-02-03T03:15:37;5.68;;;4.85;;
51612;SDS011;37694;51.748;14.326;2023-02-03T03:20:37;7.53;;;5.75;;
51612;SDS011;37694;51.748;14.326;2023-02-03T03:23:08;6.03;;;4.47;;
51612;SDS011;37694;51.748;14.326;2023-02-03T03:25:42;5.40;;;4.63;;
51612;SDS011;37694;51.748;14.326;2023-02-03T03:28:12;7.32;;;5.15;;
51612;SDS011;37694;51.748;14.326;2023-02-03T03:33:10;6.45;;;4.80;;
51612;SDS011;37694;51.748;14.326;2023-02-03T03:35:51;5.13;;;4.20;;
51612;SDS011;37694;51.748;14.326;2023-02-03T03:38:27;4.90;;;4.18;;
51612;SDS011;37694;51.748;14.326;2023-02-03T03:41:07;5.47;;;4.38;;
51612;SDS011;37694;51.748;14.326;2023-02-03T03:43:43;7.00;;;4.57;;
51612;SDS011;37694;51.748;14.326;2023-02-03T03:46:12;6.05;;;4.50;;
51612;SDS011;37694;51.748;14.326;2023-02-03T03:49:02;4.78;;;4.28;;
51612;SDS011;37694;51.748;14.326;2023-02-03T03:54:31;6.38;;;4.65;;
51612;SDS011;37694;51.748;14.326;2023-02-03T03:57:00;5.40;;;4.32;;
51612;SDS011;37694;51.748;14.326;2023-02-03T03:59:39;7.25;;;4.63;;
51612;SDS011;37694;51.748;14.326;2023-02-03T04:02:08;10.65;;;4.65;;
51612;SDS011;37694;51.748;14.326;2023-02-03T04:04:35;6.15;;;4.90;;
51612;SDS011;37694;51.748;14.326;2023-02-03T04:07:02;4.47;;;4.07;;
51612;SDS011;37694;51.748;14.326;2023-02-03T04:09:28;5.78;;;4.15;;
51612;SDS011;37694;51.748;14.326;2023-02-03T04:11:54;5.25;;;4.07;;
51612;SDS011;37694;51.748;14.326;2023-02-03T04:14:26;4.72;;;4.20;;
51612;SDS011;37694;51.748;14.326;2023-02-03T04:16:54;6.45;;;3.90;;
51612;SDS011;37694;51.748;14.326;2023-02-03T04:19:20;7.65;;;4.07;;
51612;SDS011;37694;51.748;14.326;2023-02-03T04:21:45;4.07;;;3.65;;
51612;SDS011;37694;51.748;14.326;2023-02-03T04:24:11;6.10;;;4.30;;
51612;SDS011;37694;51.748;14.326;2023-02-03T04:26:37;4.45;;;3.70;;
51612;SDS011;37694;51.748;14.326;2023-02-03T04:29:03;4.82;;;4.20;;
51612;SDS011;37694;51.748;14.326;2023-02-03T04:31:29;5.72;;;4.00;;
51612;SDS011;37694;51.748;14.326;2023-02-03T04:33:54;3.90;;;3.60;;
51612;SDS011;37694;51.748;14.326;2023-02-03T04:36:20;5.75;;;4.25;;
51612;SDS011;37694;51.748;14.326;2023-02-03T04:38:47;4.95;;;4.05;;
51612;SDS011;37694;51.748;14.326;2023-02-03T04:41:13;5.03;;;3.80;;
51612;SDS011;37694;51.748;14.326;2023-02-03T04:43:39;4.45;;;3.83;;
51612;SDS011;37694;51.748;14.326;2023-02-03T04:46:05;4.43;;;3.60;;
51612;SDS011;37694;51.748;14.326;2023-02-03T04:48:31;7.45;;;3.92;;
51612;SDS011;37694;51.748;14.326;2023-02-03T04:51:00;4.05;;;3.60;;
51612;SDS011;37694;51.748;14.326;2023-02-03T04:53:27;5.50;;;3.65;;
51612;SDS011;37694;51.748;14.326;2023-02-03T04:55:53;8.02;;;3.72;;
51612;SDS011;37694;51.748;14.326;2023-02-03T04:58:18;4.22;;;3.55;;
51612;SDS011;37694;51.748;14.326;2023-02-03T05:00:44;4.97;;;3.05;;
51612;SDS011;37694;51.748;14.326;2023-02-03T05:03:10;4.18;;;3.78;;
51612;SDS011;37694;51.748;14.326;2023-02-03T05:05:35;4.93;;;3.63;;
51612;SDS011;37694;51.748;14.326;2023-02-03T05:08:01;4.18;;;3.60;;
51612;SDS011;37694;51.748;14.326;2023-02-03T05:10:27;4.47;;;3.70;;
51612;SDS011;37694;51.748;14.326;2023-02-03T05:12:52;9.68;;;3.40;;
51612;SDS011;37694;51.748;14.326;2023-02-03T05:15:18;5.00;;;3.03;;
51612;SDS011;37694;51.748;14.326;2023-02-03T05:17:44;3.75;;;3.20;;
51612;SDS011;37694;51.748;14.326;2023-02-03T05:20:09;5.05;;;3.40;;
51612;SDS011;37694;51.748;14.326;2023-02-03T05:22:35;5.35;;;3.42;;
51612;SDS011;37694;51.748;14.326;2023-02-03T05:25:02;3.30;;;2.78;;
51612;SDS011;37694;51.748;14.326;2023-02-03T05:27:28;3.10;;;2.80;;
51612;SDS011;37694;51.748;14.326;2023-02-03T05:29:53;4.00;;;2.92;;
51612;SDS011;37694;51.748;14.326;2023-02-03T05:32:19;3.10;;;2.80;;
51612;SDS011;37694;51.748;14.326;2023-02-03T05:34:45;5.32;;;3.58;;
51612;SDS011;37694;51.748;14.326;2023-02-03T05:37:10;4.70;;;3.10;;
51612;SDS011;37694;51.748;14.326;2023-02-03T05:39:36;3.63;;;2.80;;
51612;SDS011;37694;51.748;14.326;2023-02-03T05:42:02;3.28;;;2.95;;
51612;SDS011;37694;51.748;14.326;2023-02-03T05:44:28;6.15;;;2.88;;
51612;SDS011;37694;51.748;14.326;2023-02-03T05:46:55;3.25;;;2.95;;
51612;SDS011;37694;51.748;14.326;2023-02-03T05:49:22;3.33;;;3.03;;
51612;SDS011;37694;51.748;14.326;2023-02-03T05:51:49;4.55;;;2.88;;
51612;SDS011;37694;51.748;14.326;2023-02-03T05:54:16;2.70;;;2.50;;
51612;SDS011;37694;51.748;14.326;2023-02-03T05:56:41;3.10;;;2.80;;
51612;SDS011;37694;51.748;14.326;2023-02-03T05:59:07;2.63;;;2.42;;
51612;SDS011;37694;51.748;14.326;2023-02-03T06:01:34;3.30;;;3.00;;
51612;SDS011;37694;51.748;14.326;2023-02-03T06:04:00;2.65;;;2.45;;
51612;SDS011;37694;51.748;14.326;2023-02-03T06:06:27;3.30;;;2.80;;
51612;SDS011;37694;51.748;14.326;2023-02-03T06:09:04;3.17;;;2.75;;
51612;SDS011;37694;51.748;14.326;2023-02-03T06:11:32;8.40;;;4.10;;
51612;SDS011;37694;51.748;14.326;2023-02-03T06:13:59;88.25;;;18.63;;
51612;SDS011;37694;51.748;14.326;2023-02-03T06:16:26;50.40;;;10.45;;
51612;SDS011;37694;51.748;14.326;2023-02-03T06:18:52;28.25;;;8.73;;
51612;SDS011;37694;51.748;14.326;2023-02-03T06:21:19;26.30;;;7.43;;
51612;SDS011;37694;51.748;14.326;2023-02-03T06:23:46;22.70;;;6.35;;
51612;SDS011;37694;51.748;14.326;2023-02-03T06:26:12;32.85;;;6.82;;
51612;SDS011;37694;51.748;14.326;2023-02-03T06:28:38;20.95;;;6.32;;
51612;SDS011;37694;51.748;14.326;2023-02-03T06:31:04;60.13;;;8.27;;
51612;SDS011;37694;51.748;14.326;2023-02-03T06:33:30;26.05;;;6.65;;
51612;SDS011;37694;51.748;14.326;2023-02-03T06:35:56;32.78;;;5.85;;
51612;SDS011;37694;51.748;14.326;2023-02-03T06:38:22;28.45;;;6.93;;
51612;SDS011;37694;51.748;14.326;2023-02-03T06:40:48;33.95;;;6.65;;
51612;SDS011;37694;51.748;14.326;2023-02-03T06:43:14;21.00;;;5.82;;
51612;SDS011;37694;51.748;14.326;2023-02-03T06:45:40;22.13;;;5.68;;
51612;SDS011;37694;51.748;14.326;2023-02-03T06:48:05;17.80;;;5.78;;
51612;SDS011;37694;51.748;14.326;2023-02-03T06:50:31;30.13;;;6.25;;
51612;SDS011;37694;51.748;14.326;2023-02-03T06:52:57;26.77;;;6.95;;
51612;SDS011;37694;51.748;14.326;2023-02-03T06:55:23;88.60;;;11.85;;
51612;SDS011;37694;51.748;14.326;2023-02-03T06:57:49;68.72;;;12.10;;
51612;SDS011;37694;51.748;14.326;2023-02-03T07:00:16;56.25;;;12.70;;
51612;SDS011;37694;51.748;14.326;2023-02-03T07:02:42;60.08;;;12.57;;
51612;SDS011;37694;51.748;14.326;2023-02-03T07:05:08;54.45;;;10.80;;
51612;SDS011;37694;51.748;14.326;2023-02-03T07:07:34;48.85;;;10.95;;
51612;SDS011;37694;51.748;14.326;2023-02-03T07:10:00;47.92;;;10.48;;
51612;SDS011;37694;51.748;14.326;2023-02-03T07:12:26;50.95;;;9.10;;
51612;SDS011;37694;51.748;14.326;2023-02-03T07:14:52;55.15;;;9.45;;
51612;SDS011;37694;51.748;14.326;2023-02-03T07:17:18;52.00;;;9.10;;
51612;SDS011;37694;51.748;14.326;2023-02-03T07:19:44;46.92;;;8.88;;
51612;SDS011;37694;51.748;14.326;2023-02-03T07:22:09;44.40;;;8.68;;
51612;SDS011;37694;51.748;14.326;2023-02-03T07:24:35;52.25;;;9.48;;
51612;SDS011;37694;51.748;14.326;2023-02-03T07:27:01;36.72;;;8.48;;
51612;SDS011;37694;51.748;14.326;2023-02-03T07:29:27;34.40;;;8.45;;
51612;SDS011;37694;51.748;14.326;2023-02-03T07:31:53;39.78;;;8.55;;
51612;SDS011;37694;51.748;14.326;2023-02-03T07:34:18;25.15;;;7.10;;
51612;SDS011;37694;51.748;14.326;2023-02-03T07:36:44;33.72;;;7.65;;
51612;SDS011;37694;51.748;14.326;2023-02-03T07:39:10;28.75;;;7.43;;
51612;SDS011;37694;51.748;14.326;2023-02-03T07:41:36;37.47;;;7.72;;
51612;SDS011;37694;51.748;14.326;2023-02-03T07:44:01;24.77;;;6.38;;
51612;SDS011;37694;51.748;14.326;2023-02-03T07:46:27;19.88;;;6.25;;
51612;SDS011;37694;51.748;14.326;2023-02-03T07:48:53;40.55;;;7.55;;
51612;SDS011;37694;51.748;14.326;2023-02-03T07:51:18;21.25;;;6.13;;
51612;SDS011;37694;51.748;14.326;2023-02-03T07:53:44;25.80;;;6.65;;
51612;SDS011;37694;51.748;14.326;2023-02-03T07:56:10;24.92;;;6.05;;
51612;SDS011;37694;51.748;14.326;2023-02-03T07:58:36;27.42;;;6.70;;
51612;SDS011;37694;51.748;14.326;2023-02-03T08:01:08;27.70;;;6.80;;
51612;SDS011;37694;51.748;14.326;2023-02-03T08:03:35;18.23;;;6.03;;
51612;SDS011;37694;51.748;14.326;2023-02-03T08:06:01;16.23;;;5.03;;
51612;SDS011;37694;51.748;14.326;2023-02-03T08:08:26;26.55;;;6.85;;
51612;SDS011;37694;51.748;14.326;2023-02-03T08:10:53;29.17;;;5.90;;
51612;SDS011;37694;51.748;14.326;2023-02-03T08:13:20;17.65;;;5.47;;
51612;SDS011;37694;51.748;14.326;2023-02-03T08:15:46;21.63;;;6.07;;
51612;SDS011;37694;51.748;14.326;2023-02-03T08:18:12;19.02;;;6.35;;
51612;SDS011;37694;51.748;14.326;2023-02-03T08:20:38;17.63;;;6.22;;
51612;SDS011;37694;51.748;14.326;2023-02-03T08:23:04;14.38;;;5.55;;
51612;SDS011;37694;51.748;14.326;2023-02-03T08:25:30;16.52;;;5.95;;
51612;SDS011;37694;51.748;14.326;2023-02-03T08:27:56;15.07;;;6.05;;
51612;SDS011;37694;51.748;14.326;2023-02-03T08:30:22;23.98;;;4.63;;
51612;SDS011;37694;51.748;14.326;2023-02-03T08:32:48;12.68;;;4.97;;
51612;SDS011;37694;51.748;14.326;2023-02-03T08:35:14;11.52;;;4.55;;
51612;SDS011;37694;51.748;14.326;2023-02-03T08:37:40;15.13;;;4.70;;
51612;SDS011;37694;51.748;14.326;2023-02-03T08:40:06;13.75;;;5.13;;
51612;SDS011;37694;51.748;14.326;2023-02-03T08:42:32;15.55;;;4.80;;
51612;SDS011;37694;51.748;14.326;2023-02-03T08:44:58;14.25;;;5.18;;
51612;SDS011;37694;51.748;14.326;2023-02-03T08:47:24;12.43;;;5.10;;
51612;SDS011;37694;51.748;14.326;2023-02-03T08:49:50;14.63;;;4.78;;
51612;SDS011;37694;51.748;14.326;2023-02-03T08:52:16;12.13;;;4.28;;
51612;SDS011;37694;51.748;14.326;2023-02-03T08:54:42;15.07;;;4.63;;
51612;SDS011;37694;51.748;14.326;2023-02-03T08:57:08;11.68;;;4.50;;
51612;SDS011;37694;51.748;14.326;2023-02-03T08:59:35;11.85;;;4.10;;
51612;SDS011;37694;51.748;14.326;2023-02-03T09:02:03;14.13;;;4.75;;
51612;SDS011;37694;51.748;14.326;2023-02-03T09:04:29;13.18;;;4.18;;
51612;SDS011;37694;51.748;14.326;2023-02-03T09:06:57;13.20;;;4.53;;
51612;SDS011;37694;51.748;14.326;2023-02-03T09:09:24;13.13;;;4.47;;
51612;SDS011;37694;51.748;14.326;2023-02-03T09:11:51;10.00;;;4.03;;
51612;SDS011;37694;51.748;14.326;2023-02-03T09:14:19;9.82;;;3.83;;
51612;SDS011;37694;51.748;14.326;2023-02-03T09:16:45;11.52;;;4.50;;
51612;SDS011;37694;51.748;14.326;2023-02-03T09:19:11;11.70;;;3.90;;
51612;SDS011;37694;51.748;14.326;2023-02-03T09:21:37;13.60;;;4.45;;
51612;SDS011;37694;51.748;14.326;2023-02-03T09:24:03;9.57;;;4.38;;
51612;SDS011;37694;51.748;14.326;2023-02-03T09:26:29;8.07;;;3.63;;
51612;SDS011;37694;51.748;14.326;2023-02-03T09:28:54;9.65;;;3.47;;
51612;SDS011;37694;51.748;14.326;2023-02-03T09:31:20;6.43;;;3.10;;
51612;SDS011;37694;51.748;14.326;2023-02-03T09:33:46;9.85;;;3.75;;
51612;SDS011;37694;51.748;14.326;2023-02-03T09:36:12;10.05;;;4.05;;
51612;SDS011;37694;51.748;14.326;2023-02-03T09:38:38;7.78;;;4.05;;
51612;SDS011;37694;51.748;14.326;2023-02-03T09:43:39;8.45;;;3.85;;
51612;SDS011;37694;51.748;14.326;2023-02-03T09:46:33;6.70;;;3.35;;
51612;SDS011;37694;51.748;14.326;2023-02-03T09:51:44;10.23;;;3.92;;
51612;SDS011;37694;51.748;14.326;2023-02-03T09:54:19;7.43;;;3.80;;
51612;SDS011;37694;51.748;14.326;2023-02-03T09:56:58;10.40;;;2.65;;
51612;SDS011;37694;51.748;14.326;2023-02-03T09:59:28;6.03;;;3.47;;
51612;SDS011;37694;51.748;14.326;2023-02-03T10:04:58;6.55;;;3.35;;
51612;SDS011;37694;51.748;14.326;2023-02-03T10:08:48;7.43;;;3.33;;
51612;SDS011;37694;51.748;14.326;2023-02-03T10:14:02;10.73;;;3.13;;
51612;SDS011;37694;51.748;14.326;2023-02-03T10:16:59;6.97;;;3.30;;
51612;SDS011;37694;51.748;14.326;2023-02-03T10:22:11;8.40;;;2.75;;
51612;SDS011;37694;51.748;14.326;2023-02-03T10:25:00;8.85;;;3.35;;
51612;SDS011;37694;51.748;14.326;2023-02-03T10:27:40;5.10;;;2.78;;
51612;SDS011;37694;51.748;14.326;2023-02-03T10:30:18;5.05;;;2.70;;
51612;SDS011;37694;51.748;14.326;2023-02-03T10:32:48;7.35;;;3.17;;
51612;SDS011;37694;51.748;14.326;2023-02-03T10:35:27;3.00;;;2.50;;
51612;SDS011;37694;51.748;14.326;2023-02-03T10:38:01;5.25;;;2.63;;
51612;SDS011;37694;51.748;14.326;2023-02-03T10:40:30;4.32;;;2.67;;
51612;SDS011;37694;51.748;14.326;2023-02-03T10:42:56;5.05;;;2.78;;
51612;SDS011;37694;51.748;14.326;2023-02-03T10:45:41;4.97;;;2.40;;
51612;SDS011;37694;51.748;14.326;2023-02-03T10:48:10;5.70;;;2.97;;
51612;SDS011;37694;51.748;14.326;2023-02-03T10:50:41;5.93;;;3.13;;
51612;SDS011;37694;51.748;14.326;2023-02-03T10:55:42;4.07;;;2.47;;
51612;SDS011;37694;51.748;14.326;2023-02-03T10:58:13;6.00;;;2.30;;
51612;SDS011;37694;51.748;14.326;2023-02-03T11:00:53;3.78;;;2.20;;
51612;SDS011;37694;51.748;14.326;2023-02-03T11:03:56;5.35;;;2.72;;
51612;SDS011;37694;51.748;14.326;2023-02-03T11:06:32;4.57;;;2.38;;
51612;SDS011;37694;51.748;14.326;2023-02-03T11:09:00;5.18;;;2.90;;
51612;SDS011;37694;51.748;14.326;2023-02-03T11:11:27;2.53;;;2.00;;
51612;SDS011;37694;51.748;14.326;2023-02-03T11:16:28;3.88;;;1.98;;
51612;SDS011;37694;51.748;14.326;2023-02-03T11:21:27;4.63;;;2.47;;
51612;SDS011;37694;51.748;14.326;2023-02-03T11:29:23;3.30;;;1.90;;
51612;SDS011;37694;51.748;14.326;2023-02-03T11:31:53;5.45;;;2.67;;
51612;SDS011;37694;51.748;14.326;2023-02-03T11:34:23;3.72;;;2.40;;
51612;SDS011;37694;51.748;14.326;2023-02-03T11:36:52;1.73;;;1.55;;
51612;SDS011;37694;51.748;14.326;2023-02-03T11:39:29;4.18;;;2.65;;
51612;SDS011;37694;51.748;14.326;2023-02-03T11:42:01;4.30;;;2.28;;
51612;SDS011;37694;51.748;14.326;2023-02-03T11:44:28;2.50;;;2.30;;
51612;SDS011;37694;51.748;14.326;2023-02-03T11:47:02;4.53;;;2.33;;
51612;SDS011;37694;51.748;14.326;2023-02-03T11:57:23;3.50;;;2.13;;
51612;SDS011;37694;51.748;14.326;2023-02-03T12:02:49;5.55;;;2.15;;
51612;SDS011;37694;51.748;14.326;2023-02-03T12:08:25;3.00;;;2.20;;
51612;SDS011;37694;51.748;14.326;2023-02-03T12:21:59;3.40;;;2.15;;
51612;SDS011;37694;51.748;14.326;2023-02-03T12:29:41;2.85;;;1.80;;
51612;SDS011;37694;51.748;14.326;2023-02-03T12:32:14;3.35;;;2.05;;
51612;SDS011;37694;51.748;14.326;2023-02-03T12:40:24;3.17;;;2.13;;
51612;SDS011;37694;51.748;14.326;2023-02-03T12:43:09;2.83;;;1.95;;
51612;SDS011;37694;51.748;14.326;2023-02-03T12:45:41;3.15;;;2.00;;
51612;SDS011;37694;51.748;14.326;2023-02-03T12:48:15;5.07;;;2.70;;
51612;SDS011;37694;51.748;14.326;2023-02-03T12:50:52;2.80;;;2.00;;
51612;SDS011;37694;51.748;14.326;2023-02-03T12:53:26;2.55;;;2.03;;
51612;SDS011;37694;51.748;14.326;2023-02-03T12:58:33;4.70;;;2.03;;
51612;SDS011;37694;51.748;14.326;2023-02-03T13:07:02;3.60;;;2.28;;
51612;SDS011;37694;51.748;14.326;2023-02-03T13:12:40;2.80;;;1.90;;
51612;SDS011;37694;51.748;14.326;2023-02-03T13:20:28;7.30;;;2.72;;
51612;SDS011;37694;51.748;14.326;2023-02-03T13:23:00;5.03;;;2.30;;
51612;SDS011;37694;51.748;14.326;2023-02-03T13:25:46;4.57;;;2.60;;
51612;SDS011;37694;51.748;14.326;2023-02-03T13:42:19;5.25;;;2.33;;
51612;SDS011;37694;51.748;14.326;2023-02-03T13:44:56;3.85;;;2.33;;
51612;SDS011;37694;51.748;14.326;2023-02-03T13:47:46;5.18;;;2.17;;
51612;SDS011;37694;51.748;14.326;2023-02-03T13:50:19;4.05;;;2.33;;
51612;SDS011;37694;51.748;14.326;2023-02-03T13:52:52;5.78;;;2.15;;
51612;SDS011;37694;51.748;14.326;2023-02-03T13:55:32;3.55;;;1.98;;
51612;SDS011;37694;51.748;14.326;2023-02-03T13:57:59;6.18;;;2.67;;
51612;SDS011;37694;51.748;14.326;2023-02-03T14:03:17;4.40;;;2.28;;
51612;SDS011;37694;51.748;14.326;2023-02-03T14:05:56;7.35;;;2.20;;
51612;SDS011;37694;51.748;14.326;2023-02-03T14:16:42;4.78;;;2.50;;
51612;SDS011;37694;51.748;14.326;2023-02-03T14:21:47;4.40;;;2.63;;
51612;SDS011;37694;51.748;14.326;2023-02-03T14:24:17;3.78;;;2.03;;
51612;SDS011;37694;51.748;14.326;2023-02-03T14:26:45;3.28;;;1.90;;
51612;SDS011;37694;51.748;14.326;2023-02-03T14:29:33;6.18;;;2.20;;
51612;SDS011;37694;51.748;14.326;2023-02-03T14:34:37;8.85;;;2.17;;
51612;SDS011;37694;51.748;14.326;2023-02-03T14:37:25;14.07;;;2.35;;
51612;SDS011;37694;51.748;14.326;2023-02-03T14:40:13;6.47;;;2.42;;
51612;SDS011;37694;51.748;14.326;2023-02-03T14:48:08;8.45;;;2.90;;
51612;SDS011;37694;51.748;14.326;2023-02-03T14:59:16;11.20;;;2.92;;
51612;SDS011;37694;51.748;14.326;2023-02-03T15:06:38;10.32;;;2.22;;
51612;SDS011;37694;51.748;14.326;2023-02-03T15:11:49;5.68;;;2.05;;
51612;SDS011;37694;51.748;14.326;2023-02-03T15:14:19;7.15;;;2.25;;
51612;SDS011;37694;51.748;14.326;2023-02-03T15:16:49;7.18;;;2.55;;
51612;SDS011;37694;51.748;14.326;2023-02-03T15:19:38;8.23;;;2.15;;
51612;SDS011;37694;51.748;14.326;2023-02-03T15:24:49;4.65;;;2.22;;
51612;SDS011;37694;51.748;14.326;2023-02-03T15:27:29;6.35;;;2.50;;
51612;SDS011;37694;51.748;14.326;2023-02-03T15:29:55;7.32;;;2.65;;
51612;SDS011;37694;51.748;14.326;2023-02-03T15:32:27;8.40;;;2.65;;
51612;SDS011;37694;51.748;14.326;2023-02-03T15:34:58;5.78;;;2.28;;
51612;SDS011;37694;51.748;14.326;2023-02-03T15:37:32;6.47;;;2.80;;
51612;SDS011;37694;51.748;14.326;2023-02-03T15:40:02;5.18;;;2.45;;
51612;SDS011;37694;51.748;14.326;2023-02-03T15:42:31;6.07;;;2.33;;
51612;SDS011;37694;51.748;14.326;2023-02-03T15:53:32;6.13;;;2.95;;
51612;SDS011;37694;51.748;14.326;2023-02-03T15:56:11;8.93;;;2.55;;
51612;SDS011;37694;51.748;14.326;2023-02-03T15:58:44;5.18;;;2.08;;
51612;SDS011;37694;51.748;14.326;2023-02-03T16:01:11;6.25;;;2.20;;
51612;SDS011;37694;51.748;14.326;2023-02-03T16:03:42;6.60;;;2.70;;
51612;SDS011;37694;51.748;14.326;2023-02-03T16:06:22;7.15;;;2.40;;
51612;SDS011;37694;51.748;14.326;2023-02-03T16:08:51;4.93;;;2.10;;
51612;SDS011;37694;51.748;14.326;2023-02-03T16:13:53;10.35;;;2.17;;
51612;SDS011;37694;51.748;14.326;2023-02-03T16:19:32;6.20;;;2.30;;
51612;SDS011;37694;51.748;14.326;2023-02-03T16:21:56;3.97;;;2.58;;
51612;SDS011;37694;51.748;14.326;2023-02-03T16:27:18;5.57;;;2.58;;
51612;SDS011;37694;51.748;14.326;2023-02-03T16:29:53;6.07;;;2.80;;
51612;SDS011;37694;51.748;14.326;2023-02-03T16:35:55;5.72;;;2.33;;
51612;SDS011;37694;51.748;14.326;2023-02-03T16:38:44;5.10;;;2.25;;
51612;SDS011;37694;51.748;14.326;2023-02-03T16:41:32;6.70;;;2.55;;
51612;SDS011;37694;51.748;14.326;2023-02-03T16:44:17;4.57;;;2.53;;
51612;SDS011;37694;51.748;14.326;2023-02-03T16:47:02;6.50;;;2.80;;
51612;SDS011;37694;51.748;14.326;2023-02-03T16:49:46;4.95;;;2.70;;
51612;SDS011;37694;51.748;14.326;2023-02-03T16:52:31;6.22;;;2.60;;
51612;SDS011;37694;51.748;14.326;2023-02-03T16:54:56;7.40;;;2.63;;
51612;SDS011;37694;51.748;14.326;2023-02-03T16:57:23;3.08;;;2.08;;
51612;SDS011;37694;51.748;14.326;2023-02-03T16:59:48;7.80;;;3.33;;
51612;SDS011;37694;51.748;14.326;2023-02-03T17:02:14;5.20;;;2.20;;
51612;SDS011;37694;51.748;14.326;2023-02-03T17:04:40;3.90;;;2.13;;
51612;SDS011;37694;51.748;14.326;2023-02-03T17:07:06;4.15;;;2.28;;
51612;SDS011;37694;51.748;14.326;2023-02-03T17:09:32;3.78;;;2.40;;
51612;SDS011;37694;51.748;14.326;2023-02-03T17:12:00;5.88;;;3.15;;
51612;SDS011;37694;51.748;14.326;2023-02-03T17:14:27;5.60;;;3.45;;
51612;SDS011;37694;51.748;14.326;2023-02-03T17:16:52;12.27;;;5.90;;
51612;SDS011;37694;51.748;14.326;2023-02-03T17:19:18;10.10;;;6.43;;
51612;SDS011;37694;51.748;14.326;2023-02-03T17:21:44;7.88;;;4.65;;
51612;SDS011;37694;51.748;14.326;2023-02-03T17:24:11;5.88;;;3.42;;
51612;SDS011;37694;51.748;14.326;2023-02-03T17:26:37;5.75;;;4.07;;
51612;SDS011;37694;51.748;14.326;2023-02-03T17:29:03;9.55;;;5.05;;
51612;SDS011;37694;51.748;14.326;2023-02-03T17:31:29;8.88;;;5.00;;
51612;SDS011;37694;51.748;14.326;2023-02-03T17:33:55;8.73;;;4.90;;
51612;SDS011;37694;51.748;14.326;2023-02-03T17:36:21;8.52;;;5.15;;
51612;SDS011;37694;51.748;14.326;2023-02-03T17:38:52;9.30;;;5.03;;
51612;SDS011;37694;51.748;14.326;2023-02-03T17:41:22;7.70;;;6.05;;
51612;SDS011;37694;51.748;14.326;2023-02-03T17:43:50;8.70;;;5.32;;
51612;SDS011;37694;51.748;14.326;2023-02-03T17:46:19;10.38;;;6.15;;
51612;SDS011;37694;51.748;14.326;2023-02-03T17:48:47;10.75;;;6.38;;
51612;SDS011;37694;51.748;14.326;2023-02-03T17:51:13;10.30;;;7.28;;
51612;SDS011;37694;51.748;14.326;2023-02-03T17:53:44;11.23;;;7.75;;
51612;SDS011;37694;51.748;14.326;2023-02-03T17:56:12;11.98;;;8.57;;
51612;SDS011;37694;51.748;14.326;2023-02-03T17:58:38;14.02;;;8.63;;